Navigator Of The Seas — C6FU4 — position and weather

sailwx.info

Track history (hours):
 
Tides and Currents Weather Stations Pressure Air Temp Water Temp Dewpoint Dewpoint Depression Visibility Wind Speed Wind Dir Waves Ship Positions

Navigator Of The Seas

Operator: Royal Caribbean Cruises Ltd

Last reported at 2019-Jul-20 02:41 UTC. Time now 2019-Jul-20 14:13 UTC.
Position N 26°15' W 079°14'.

Type: Passenger vessel. MMSI: 311478000.

Date/timePositionNaut miles runAvg speedWind from/ knotsBaromVisibWave heightAir tempDewpointWater temp
2019-Jul-20 02:41N 26°15' W 079°14'2 9.2
2019-Jul-20 02:30N 26°14' W 079°15'5 9.4
2019-Jul-20 02:00N 26°12' W 079°20'5 9.4
2019-Jul-20 01:30N 26°09' W 079°24'5 9.5
2019-Jul-20 01:00N 26°07' W 079°28'5 9.5
2019-Jul-20 00:30N 26°04' W 079°33'5 9.7
2019-Jul-20 00:00N 26°02' W 079°38'5 9.9
2019-Jul-19 23:30N 25°59' W 079°42'510.3
2019-Jul-19 23:00N 25°56' W 079°47'510.6
2019-Jul-19 22:30N 25°53' W 079°51'510.8
2019-Jul-19 22:00N 25°50' W 079°56'510.6
2019-Jul-19 21:30N 25°47' W 080°02'510.8
2019-Jul-19 21:01N 25°46' W 080°07'2 3.8
2019-Jul-19 20:28N 25°46' W 080°09'0 0.0
2019-Jul-19 19:58N 25°46' W 080°09'0 0.0
2019-Jul-19 19:28N 25°46' W 080°09'0 0.0
2019-Jul-19 18:58N 25°46' W 080°09'0 0.0
2019-Jul-19 18:28N 25°46' W 080°09'0 0.0
2019-Jul-19 17:58N 25°46' W 080°09'0 0.0
2019-Jul-19 17:28N 25°46' W 080°09'0 0.0
2019-Jul-19 16:58N 25°46' W 080°09'0 0.0
2019-Jul-19 16:28N 25°46' W 080°09'0 0.0
2019-Jul-19 15:58N 25°46' W 080°09'0 0.0
2019-Jul-19 15:28N 25°46' W 080°09'0 0.0
2019-Jul-19 14:58N 25°46' W 080°09'0 0.0
2019-Jul-19 14:22N 25°46' W 080°09'0 0.0
2019-Jul-19 13:58N 25°46' W 080°09'0 0.0
2019-Jul-19 13:28N 25°46' W 080°09'0 0.0
2019-Jul-19 12:58N 25°46' W 080°09'0 0.0
2019-Jul-19 12:28N 25°46' W 080°09'0 0.0
2019-Jul-19 11:58N 25°46' W 080°09'0 0.0
2019-Jul-19 11:28N 25°46' W 080°09'0 0.0
2019-Jul-19 10:58N 25°46' W 080°09'0 0.0
2019-Jul-19 10:28N 25°46' W 080°09'1 2.9
2019-Jul-19 10:01N 25°47' W 080°11'1 2.1
2019-Jul-19 09:31N 25°46' W 080°10'5 9.7
2019-Jul-19 09:00N 25°46' W 080°04'3 6.8
2019-Jul-19 08:30N 25°47' W 080°01'3 6.9
2019-Jul-19 08:00N 25°47' W 079°57'4 8.0
2019-Jul-19 07:30N 25°47' W 079°52'4 8.3
2019-Jul-19 07:00N 25°48' W 079°48'5 9.1
2019-Jul-19 06:30N 25°52' W 079°45'4 8.7
2019-Jul-19 06:00N 25°56' W 079°43'4 8.7
2019-Jul-19 05:30N 26°00' W 079°41'3 7.0
2019-Jul-19 05:00N 25°58' W 079°38'510.2
2019-Jul-19 04:30N 25°53' W 079°40'510.5
2019-Jul-19 04:00N 25°48' W 079°41'510.7
2019-Jul-19 03:30N 25°42' W 079°41'510.5
2019-Jul-19 03:00N 25°37' W 079°41'510.2
2019-Jul-19 02:30N 25°32' W 079°41'510.4
2019-Jul-19 02:00N 25°27' W 079°41'4 7.6
2019-Jul-19 01:30N 25°23' W 079°39'3 6.0
2019-Jul-19 01:00N 25°24' W 079°36'2 4.8
2019-Jul-19 00:30N 25°25' W 079°34'3 5.1
2019-Jul-19 00:00N 25°28' W 079°34'2 4.4
2019-Jul-18 23:30N 25°30' W 079°34'2 4.4
2019-Jul-18 23:00N 25°32' W 079°35'2 4.2
2019-Jul-18 22:30N 25°34' W 079°35'2 4.1
2019-Jul-18 22:00N 25°36' W 079°35'2 4.4
2019-Jul-18 21:30N 25°38' W 079°36'2 4.6
2019-Jul-18 21:00N 25°41' W 079°36'2 4.9
2019-Jul-18 20:30N 25°43' W 079°36'2 4.7
2019-Jul-18 20:00N 25°46' W 079°36'3 6.8
2019-Jul-18 19:30N 25°49' W 079°34'611.3
2019-Jul-18 19:00N 25°54' W 079°32'4 7.9
2019-Jul-18 18:30N 25°57' W 079°29'2 5.0
2019-Jul-18 18:00N 25°59' W 079°28'3 5.1
2019-Jul-18 17:30N 26°02' W 079°27'3 5.1
2019-Jul-18 17:00N 26°04' W 079°25'3 5.1
2019-Jul-18 16:30N 26°06' W 079°24'2 4.9
2019-Jul-18 16:00N 26°09' W 079°23'3 5.5
2019-Jul-18 15:30N 26°11' W 079°22'4 7.1
2019-Jul-18 15:00N 26°13' W 079°19'5 8.2
2019-Jul-18 14:25N 26°15' W 079°14'6 9.2
2019-Jul-18 13:45N 26°18' W 079°08'  
2019-Jul-16 02:58N 26°15' W 079°12'4 9.2
2019-Jul-16 02:30N 26°13' W 079°16'5 9.3
2019-Jul-16 02:00N 26°11' W 079°21'5 9.8
2019-Jul-16 01:30N 26°08' W 079°25'510.2
2019-Jul-16 01:00N 26°06' W 079°30'510.5
2019-Jul-16 00:30N 26°03' W 079°35'510.7
2019-Jul-16 00:00N 25°60' W 079°40'511.1
2019-Jul-15 23:31N 25°57' W 079°45'611.1
2019-Jul-15 23:01N 25°54' W 079°50'7449.6
2019-Jul-15 23:00N 25°54' W 079°42'1326.4 050 / 131023.2 29.0
2019-Jul-15 22:31N 25°51' W 079°56'611.3
2019-Jul-15 22:00N 25°47' W 080°01'5 9.9
2019-Jul-15 21:31N 25°46' W 080°06'4 8.3
2019-Jul-15 21:01N 25°47' W 080°10'1 1.6
2019-Jul-15 20:30N 25°46' W 080°10'0 0.2
2019-Jul-15 19:51N 25°46' W 080°10'0 0.0
2019-Jul-15 19:24N 25°46' W 080°10'0 0.0
2019-Jul-15 18:54N 25°46' W 080°10'0 0.0
2019-Jul-15 18:24N 25°46' W 080°10'0 0.0
2019-Jul-15 17:54N 25°46' W 080°10'0 0.0
2019-Jul-15 17:24N 25°46' W 080°10'0 0.0
2019-Jul-15 16:57N 25°46' W 080°10'0 0.0
2019-Jul-15 16:27N 25°46' W 080°10'0 0.0
2019-Jul-15 15:57N 25°46' W 080°10'0 0.0
2019-Jul-15 15:27N 25°46' W 080°10'0 0.0
2019-Jul-15 14:57N 25°46' W 080°10'0 0.0
2019-Jul-15 14:27N 25°46' W 080°10'0 0.0
2019-Jul-15 14:00N 25°46' W 080°10'0 0.0
2019-Jul-15 13:30N 25°46' W 080°10'0 0.0
2019-Jul-15 12:57N 25°46' W 080°10'0 0.0
2019-Jul-15 12:30N 25°46' W 080°10'0 0.0
2019-Jul-15 12:00N 25°46' W 080°10'0 0.0
2019-Jul-15 11:30N 25°46' W 080°10'0 0.0
2019-Jul-15 11:00N 25°46' W 080°10'0 0.0
2019-Jul-15 10:30N 25°46' W 080°10'0 0.0
2019-Jul-15 10:00N 25°46' W 080°10'1 1.3
2019-Jul-15 09:30N 25°46' W 080°09'611.2
2019-Jul-15 09:00N 25°47' W 080°03'510.8
2019-Jul-15 08:30N 25°49' W 079°57'613.1
2019-Jul-15 08:01N 25°51' W 079°50'510.0
2019-Jul-15 07:31N 25°54' W 079°46'611.7
2019-Jul-15 07:00N 25°58' W 079°41'612.1
2019-Jul-15 06:31N 25°59' W 079°35'713.8
2019-Jul-15 06:00N 26°02' W 079°28'12014.9
2019-Jul-14 22:00N 25°18' W 077°24'40 1.6 060 / 221024.210.8 26.0 25.0
2019-Jul-13 21:00N 25°48' W 077°54'75 4.2 100 / 101024.2 5.4 31.0
2019-Jul-13 03:21N 26°17' W 079°11'410.8
2019-Jul-13 03:00N 26°15' W 079°14'611.5
2019-Jul-13 02:30N 26°11' W 079°19'611.8
2019-Jul-13 02:00N 26°08' W 079°24'612.0
2019-Jul-13 01:30N 26°02' W 079°27'611.8
2019-Jul-13 01:00N 25°57' W 079°31'610.8
2019-Jul-13 00:29N 25°55' W 079°36'3 7.2
2019-Jul-13 00:00N 25°55' W 079°40'3 6.9
2019-Jul-12 23:30N 25°55' W 079°44'4 7.8
2019-Jul-12 23:00N 25°54' W 079°48'713.8
2019-Jul-12 22:31N 25°51' W 079°55'714.1
2019-Jul-12 22:00N 25°48' W 080°02'6411.8
2019-Jul-12 22:00N 25°42' W 080°00'816.2 130 / 141021.2 5.4 28.0
2019-Jul-12 21:30N 25°46' W 080°08'2 2.8
2019-Jul-12 20:55N 25°46' W 080°09'0 0.0
2019-Jul-12 20:28N 25°46' W 080°09'0 0.0
2019-Jul-12 19:58N 25°46' W 080°09'0 0.0
2019-Jul-12 19:28N 25°46' W 080°09'0 0.0
2019-Jul-12 18:58N 25°46' W 080°09'0 0.0
2019-Jul-12 18:28N 25°46' W 080°09'0 0.0
2019-Jul-12 17:58N 25°46' W 080°09'0 0.0
2019-Jul-12 17:28N 25°46' W 080°09'0 0.0
2019-Jul-12 16:58N 25°46' W 080°09'0 0.0
2019-Jul-12 16:28N 25°46' W 080°09'0 0.0
2019-Jul-12 15:58N 25°46' W 080°09'0 0.0
2019-Jul-12 15:28N 25°46' W 080°09'0 0.0
2019-Jul-12 14:58N 25°46' W 080°09'0 0.0
2019-Jul-12 14:28N 25°46' W 080°09'0 0.0
2019-Jul-12 13:58N 25°46' W 080°09'0 0.0
2019-Jul-12 13:28N 25°46' W 080°09'0 0.0
2019-Jul-12 12:58N 25°46' W 080°09'0 0.0
2019-Jul-12 12:28N 25°46' W 080°09'0 0.0
2019-Jul-12 11:58N 25°46' W 080°09'0 0.0
2019-Jul-12 11:28N 25°46' W 080°09'0 0.0
2019-Jul-12 10:58N 25°46' W 080°09'0 0.0
2019-Jul-12 10:25N 25°46' W 080°09'1 2.8
2019-Jul-12 10:01N 25°47' W 080°11'1 2.8
2019-Jul-12 09:30N 25°46' W 080°09'611.9
2019-Jul-12 09:00N 25°47' W 080°03'1 2.8
2019-Jul-12 08:30N 25°47' W 080°01'4 7.4
2019-Jul-12 08:00N 25°47' W 079°57'4 7.8
2019-Jul-12 07:30N 25°47' W 079°53'4 7.8
2019-Jul-12 07:00N 25°47' W 079°48'4 8.0
2019-Jul-12 06:30N 25°47' W 079°44'4 7.9
2019-Jul-12 06:00N 25°44' W 079°40'510.8
2019-Jul-12 05:30N 25°39' W 079°40'510.7
2019-Jul-12 05:00N 25°34' W 079°40'510.6
2019-Jul-12 04:30N 25°28' W 079°40'510.3
2019-Jul-12 04:00N 25°23' W 079°40'510.1
2019-Jul-12 03:30N 25°18' W 079°40'9 1.7
2019-Jul-11 22:14N 25°09' W 079°40'11 1.7
2019-Jul-11 15:51N 25°18' W 079°33'2 5.1
2019-Jul-11 15:30N 25°20' W 079°33'3 5.0
2019-Jul-11 14:59N 25°22' W 079°33'4 8.8
2019-Jul-11 14:30N 25°27' W 079°34'3 5.4
2019-Jul-11 14:00N 25°29' W 079°35'2 4.3
2019-Jul-11 13:30N 25°31' W 079°35'2 4.2
2019-Jul-11 13:00N 25°33' W 079°35'2 4.2
2019-Jul-11 12:30N 25°35' W 079°36'2 4.1
2019-Jul-11 12:00N 25°38' W 079°36'2 4.0
2019-Jul-11 11:30N 25°40' W 079°36'2 4.0
2019-Jul-11 11:00N 25°42' W 079°36'2 3.9
2019-Jul-11 10:30N 25°43' W 079°36'2 4.0
2019-Jul-11 09:59N 25°45' W 079°35'2 4.0
2019-Jul-11 09:30N 25°47' W 079°35'2 4.0
2019-Jul-11 09:00N 25°49' W 079°33'2 4.1
2019-Jul-11 08:30N 25°51' W 079°33'2 4.2
2019-Jul-11 08:00N 25°53' W 079°32'2 4.3
2019-Jul-11 07:30N 25°55' W 079°31'2 4.3
2019-Jul-11 07:00N 25°57' W 079°31'2 4.4
2019-Jul-11 06:30N 25°59' W 079°30'2 4.4
2019-Jul-11 06:00N 26°01' W 079°29'2 4.6
2019-Jul-11 05:30N 26°03' W 079°27'3 5.0
2019-Jul-11 05:00N 26°05' W 079°26'3 5.2
2019-Jul-11 04:30N 26°07' W 079°24'3 5.6
2019-Jul-11 04:00N 26°10' W 079°23'3 6.1
2019-Jul-11 03:30N 26°12' W 079°21'1813.6
2019-Jul-11 02:10N 26°18' W 079°01'6710.9
2019-Jul-10 20:00N 25°48' W 077°54'   170 / 91023.2 5.4 29.0
Track history (hours):
 
Tides and Currents Weather Stations Pressure Air Temp Water Temp Dewpoint Dewpoint Depression Visibility Wind Speed Wind Dir Waves Ship Positions

Navigator Of The Seas

Operator: Royal Caribbean Cruises Ltd

Last reported at 2019-Jul-20 02:41 UTC. Time now 2019-Jul-20 14:13 UTC.
Position N 26°15' W 079°14'.

Type: Passenger vessel. MMSI: 311478000.

Date/timePositionNaut miles runAvg speedWind from/ knotsBaromVisibWave heightAir tempDewpointWater temp
2019-Jul-20 02:41N 26°15' W 079°14'2 9.2
2019-Jul-20 02:30N 26°14' W 079°15'5 9.4
2019-Jul-20 02:00N 26°12' W 079°20'5 9.4
2019-Jul-20 01:30N 26°09' W 079°24'5 9.5
2019-Jul-20 01:00N 26°07' W 079°28'5 9.5
2019-Jul-20 00:30N 26°04' W 079°33'5 9.7
2019-Jul-20 00:00N 26°02' W 079°38'5 9.9
2019-Jul-19 23:30N 25°59' W 079°42'510.3
2019-Jul-19 23:00N 25°56' W 079°47'510.6
2019-Jul-19 22:30N 25°53' W 079°51'510.8
2019-Jul-19 22:00N 25°50' W 079°56'510.6
2019-Jul-19 21:30N 25°47' W 080°02'510.8
2019-Jul-19 21:01N 25°46' W 080°07'2 3.8
2019-Jul-19 20:28N 25°46' W 080°09'0 0.0
2019-Jul-19 19:58N 25°46' W 080°09'0 0.0
2019-Jul-19 19:28N 25°46' W 080°09'0 0.0
2019-Jul-19 18:58N 25°46' W 080°09'0 0.0
2019-Jul-19 18:28N 25°46' W 080°09'0 0.0
2019-Jul-19 17:58N 25°46' W 080°09'0 0.0
2019-Jul-19 17:28N 25°46' W 080°09'0 0.0
2019-Jul-19 16:58N 25°46' W 080°09'0 0.0
2019-Jul-19 16:28N 25°46' W 080°09'0 0.0
2019-Jul-19 15:58N 25°46' W 080°09'0 0.0
2019-Jul-19 15:28N 25°46' W 080°09'0 0.0
2019-Jul-19 14:58N 25°46' W 080°09'0 0.0
2019-Jul-19 14:22N 25°46' W 080°09'0 0.0
2019-Jul-19 13:58N 25°46' W 080°09'0 0.0
2019-Jul-19 13:28N 25°46' W 080°09'0 0.0
2019-Jul-19 12:58N 25°46' W 080°09'0 0.0
2019-Jul-19 12:28N 25°46' W 080°09'0 0.0
2019-Jul-19 11:58N 25°46' W 080°09'0 0.0
2019-Jul-19 11:28N 25°46' W 080°09'0 0.0
2019-Jul-19 10:58N 25°46' W 080°09'0 0.0
2019-Jul-19 10:28N 25°46' W 080°09'1 2.9
2019-Jul-19 10:01N 25°47' W 080°11'1 2.1
2019-Jul-19 09:31N 25°46' W 080°10'5 9.7
2019-Jul-19 09:00N 25°46' W 080°04'3 6.8
2019-Jul-19 08:30N 25°47' W 080°01'3 6.9
2019-Jul-19 08:00N 25°47' W 079°57'4 8.0
2019-Jul-19 07:30N 25°47' W 079°52'4 8.3
2019-Jul-19 07:00N 25°48' W 079°48'5 9.1
2019-Jul-19 06:30N 25°52' W 079°45'4 8.7
2019-Jul-19 06:00N 25°56' W 079°43'4 8.7
2019-Jul-19 05:30N 26°00' W 079°41'3 7.0
2019-Jul-19 05:00N 25°58' W 079°38'510.2
2019-Jul-19 04:30N 25°53' W 079°40'510.5
2019-Jul-19 04:00N 25°48' W 079°41'510.7
2019-Jul-19 03:30N 25°42' W 079°41'510.5
2019-Jul-19 03:00N 25°37' W 079°41'510.2
2019-Jul-19 02:30N 25°32' W 079°41'510.4
2019-Jul-19 02:00N 25°27' W 079°41'4 7.6
2019-Jul-19 01:30N 25°23' W 079°39'3 6.0
2019-Jul-19 01:00N 25°24' W 079°36'2 4.8
2019-Jul-19 00:30N 25°25' W 079°34'3 5.1
2019-Jul-19 00:00N 25°28' W 079°34'2 4.4
2019-Jul-18 23:30N 25°30' W 079°34'2 4.4
2019-Jul-18 23:00N 25°32' W 079°35'2 4.2
2019-Jul-18 22:30N 25°34' W 079°35'2 4.1
2019-Jul-18 22:00N 25°36' W 079°35'2 4.4
2019-Jul-18 21:30N 25°38' W 079°36'2 4.6
2019-Jul-18 21:00N 25°41' W 079°36'2 4.9
2019-Jul-18 20:30N 25°43' W 079°36'2 4.7
2019-Jul-18 20:00N 25°46' W 079°36'3 6.8
2019-Jul-18 19:30N 25°49' W 079°34'611.3
2019-Jul-18 19:00N 25°54' W 079°32'4 7.9
2019-Jul-18 18:30N 25°57' W 079°29'2 5.0
2019-Jul-18 18:00N 25°59' W 079°28'3 5.1
2019-Jul-18 17:30N 26°02' W 079°27'3 5.1
2019-Jul-18 17:00N 26°04' W 079°25'3 5.1
2019-Jul-18 16:30N 26°06' W 079°24'2 4.9
2019-Jul-18 16:00N 26°09' W 079°23'3 5.5
2019-Jul-18 15:30N 26°11' W 079°22'4 7.1
2019-Jul-18 15:00N 26°13' W 079°19'5 8.2
2019-Jul-18 14:25N 26°15' W 079°14'6 9.2
2019-Jul-18 13:45N 26°18' W 079°08'  
2019-Jul-16 02:58N 26°15' W 079°12'4 9.2
2019-Jul-16 02:30N 26°13' W 079°16'5 9.3
2019-Jul-16 02:00N 26°11' W 079°21'5 9.8
2019-Jul-16 01:30N 26°08' W 079°25'510.2
2019-Jul-16 01:00N 26°06' W 079°30'510.5
2019-Jul-16 00:30N 26°03' W 079°35'510.7
2019-Jul-16 00:00N 25°60' W 079°40'511.1
2019-Jul-15 23:31N 25°57' W 079°45'611.1
2019-Jul-15 23:01N 25°54' W 079°50'7449.6
2019-Jul-15 23:00N 25°54' W 079°42'1326.4 050 / 131023.2 29.0
2019-Jul-15 22:31N 25°51' W 079°56'611.3
2019-Jul-15 22:00N 25°47' W 080°01'5 9.9
2019-Jul-15 21:31N 25°46' W 080°06'4 8.3
2019-Jul-15 21:01N 25°47' W 080°10'1 1.6
2019-Jul-15 20:30N 25°46' W 080°10'0 0.2
2019-Jul-15 19:51N 25°46' W 080°10'0 0.0
2019-Jul-15 19:24N 25°46' W 080°10'0 0.0
2019-Jul-15 18:54N 25°46' W 080°10'0 0.0
2019-Jul-15 18:24N 25°46' W 080°10'0 0.0
2019-Jul-15 17:54N 25°46' W 080°10'0 0.0
2019-Jul-15 17:24N 25°46' W 080°10'0 0.0
2019-Jul-15 16:57N 25°46' W 080°10'0 0.0
2019-Jul-15 16:27N 25°46' W 080°10'0 0.0
2019-Jul-15 15:57N 25°46' W 080°10'0 0.0
2019-Jul-15 15:27N 25°46' W 080°10'0 0.0
2019-Jul-15 14:57N 25°46' W 080°10'0 0.0
2019-Jul-15 14:27N 25°46' W 080°10'0 0.0
2019-Jul-15 14:00N 25°46' W 080°10'0 0.0
2019-Jul-15 13:30N 25°46' W 080°10'0 0.0
2019-Jul-15 12:57N 25°46' W 080°10'0 0.0
2019-Jul-15 12:30N 25°46' W 080°10'0 0.0
2019-Jul-15 12:00N 25°46' W 080°10'0 0.0
2019-Jul-15 11:30N 25°46' W 080°10'0 0.0
2019-Jul-15 11:00N 25°46' W 080°10'0 0.0
2019-Jul-15 10:30N 25°46' W 080°10'0 0.0
2019-Jul-15 10:00N 25°46' W 080°10'1 1.3
2019-Jul-15 09:30N 25°46' W 080°09'611.2
2019-Jul-15 09:00N 25°47' W 080°03'510.8
2019-Jul-15 08:30N 25°49' W 079°57'613.1
2019-Jul-15 08:01N 25°51' W 079°50'510.0
2019-Jul-15 07:31N 25°54' W 079°46'611.7
2019-Jul-15 07:00N 25°58' W 079°41'612.1
2019-Jul-15 06:31N 25°59' W 079°35'713.8
2019-Jul-15 06:00N 26°02' W 079°28'12014.9
2019-Jul-14 22:00N 25°18' W 077°24'40 1.6 060 / 221024.210.8 26.0 25.0
2019-Jul-13 21:00N 25°48' W 077°54'75 4.2 100 / 101024.2 5.4 31.0
2019-Jul-13 03:21N 26°17' W 079°11'410.8
2019-Jul-13 03:00N 26°15' W 079°14'611.5
2019-Jul-13 02:30N 26°11' W 079°19'611.8
2019-Jul-13 02:00N 26°08' W 079°24'612.0
2019-Jul-13 01:30N 26°02' W 079°27'611.8
2019-Jul-13 01:00N 25°57' W 079°31'610.8
2019-Jul-13 00:29N 25°55' W 079°36'3 7.2
2019-Jul-13 00:00N 25°55' W 079°40'3 6.9
2019-Jul-12 23:30N 25°55' W 079°44'4 7.8
2019-Jul-12 23:00N 25°54' W 079°48'713.8
2019-Jul-12 22:31N 25°51' W 079°55'714.1
2019-Jul-12 22:00N 25°48' W 080°02'6411.8
2019-Jul-12 22:00N 25°42' W 080°00'816.2 130 / 141021.2 5.4 28.0
2019-Jul-12 21:30N 25°46' W 080°08'2 2.8
2019-Jul-12 20:55N 25°46' W 080°09'0 0.0
2019-Jul-12 20:28N 25°46' W 080°09'0 0.0
2019-Jul-12 19:58N 25°46' W 080°09'0 0.0
2019-Jul-12 19:28N 25°46' W 080°09'0 0.0
2019-Jul-12 18:58N 25°46' W 080°09'0 0.0
2019-Jul-12 18:28N 25°46' W 080°09'0 0.0
2019-Jul-12 17:58N 25°46' W 080°09'0 0.0
2019-Jul-12 17:28N 25°46' W 080°09'0 0.0
2019-Jul-12 16:58N 25°46' W 080°09'0 0.0
2019-Jul-12 16:28N 25°46' W 080°09'0 0.0
2019-Jul-12 15:58N 25°46' W 080°09'0 0.0
2019-Jul-12 15:28N 25°46' W 080°09'0 0.0
2019-Jul-12 14:58N 25°46' W 080°09'0 0.0
2019-Jul-12 14:28N 25°46' W 080°09'0 0.0
2019-Jul-12 13:58N 25°46' W 080°09'0 0.0
2019-Jul-12 13:28N 25°46' W 080°09'0 0.0
2019-Jul-12 12:58N 25°46' W 080°09'0 0.0
2019-Jul-12 12:28N 25°46' W 080°09'0 0.0
2019-Jul-12 11:58N 25°46' W 080°09'0 0.0
2019-Jul-12 11:28N 25°46' W 080°09'0 0.0
2019-Jul-12 10:58N 25°46' W 080°09'0 0.0
2019-Jul-12 10:25N 25°46' W 080°09'1 2.8
2019-Jul-12 10:01N 25°47' W 080°11'1 2.8
2019-Jul-12 09:30N 25°46' W 080°09'611.9
2019-Jul-12 09:00N 25°47' W 080°03'1 2.8
2019-Jul-12 08:30N 25°47' W 080°01'4 7.4
2019-Jul-12 08:00N 25°47' W 079°57'4 7.8
2019-Jul-12 07:30N 25°47' W 079°53'4 7.8
2019-Jul-12 07:00N 25°47' W 079°48'4 8.0
2019-Jul-12 06:30N 25°47' W 079°44'4 7.9
2019-Jul-12 06:00N 25°44' W 079°40'510.8
2019-Jul-12 05:30N 25°39' W 079°40'510.7
2019-Jul-12 05:00N 25°34' W 079°40'510.6
2019-Jul-12 04:30N 25°28' W 079°40'510.3
2019-Jul-12 04:00N 25°23' W 079°40'510.1
2019-Jul-12 03:30N 25°18' W 079°40'9 1.7
2019-Jul-11 22:14N 25°09' W 079°40'11 1.7
2019-Jul-11 15:51N 25°18' W 079°33'2 5.1
2019-Jul-11 15:30N 25°20' W 079°33'3 5.0
2019-Jul-11 14:59N 25°22' W 079°33'4 8.8
2019-Jul-11 14:30N 25°27' W 079°34'3 5.4
2019-Jul-11 14:00N 25°29' W 079°35'2 4.3
2019-Jul-11 13:30N 25°31' W 079°35'2 4.2
2019-Jul-11 13:00N 25°33' W 079°35'2 4.2
2019-Jul-11 12:30N 25°35' W 079°36'2 4.1
2019-Jul-11 12:00N 25°38' W 079°36'2 4.0
2019-Jul-11 11:30N 25°40' W 079°36'2 4.0
2019-Jul-11 11:00N 25°42' W 079°36'2 3.9
2019-Jul-11 10:30N 25°43' W 079°36'2 4.0
2019-Jul-11 09:59N 25°45' W 079°35'2 4.0
2019-Jul-11 09:30N 25°47' W 079°35'2 4.0
2019-Jul-11 09:00N 25°49' W 079°33'2 4.1
2019-Jul-11 08:30N 25°51' W 079°33'2 4.2
2019-Jul-11 08:00N 25°53' W 079°32'2 4.3
2019-Jul-11 07:30N 25°55' W 079°31'2 4.3
2019-Jul-11 07:00N 25°57' W 079°31'2 4.4
2019-Jul-11 06:30N 25°59' W 079°30'2 4.4
2019-Jul-11 06:00N 26°01' W 079°29'2 4.6
2019-Jul-11 05:30N 26°03' W 079°27'3 5.0
2019-Jul-11 05:00N 26°05' W 079°26'3 5.2
2019-Jul-11 04:30N 26°07' W 079°24'3 5.6
2019-Jul-11 04:00N 26°10' W 079°23'3 6.1
2019-Jul-11 03:30N 26°12' W 079°21'1813.6
2019-Jul-11 02:10N 26°18' W 079°01'6710.9
2019-Jul-10 20:00N 25°48' W 077°54'   170 / 91023.2 5.4 29.0

Dump ship's entire track history